createdAt,value
2017-10-08T00:00:59.607Z,20.4
2017-10-08T00:02:01.024Z,20.4
2017-10-08T00:03:02.437Z,20.4
2017-10-08T00:04:03.852Z,20.5
2017-10-08T00:05:05.267Z,20.5
2017-10-08T00:06:06.680Z,20.4
2017-10-08T00:07:08.096Z,20.3
2017-10-08T00:08:09.517Z,20.4
2017-10-08T00:09:10.924Z,20.4
2017-10-08T00:10:12.339Z,20.3
2017-10-08T00:11:13.759Z,20.4
2017-10-08T00:12:15.170Z,20.4
2017-10-08T00:13:16.586Z,20.4
2017-10-08T00:14:18.004Z,20.3
2017-10-08T00:15:19.410Z,20.4
2017-10-08T00:16:20.829Z,20.4
2017-10-08T00:17:22.241Z,20.3
2017-10-08T00:18:23.664Z,20.4
2017-10-08T00:19:25.078Z,20.4
2017-10-08T00:20:26.494Z,20.4
2017-10-08T00:21:27.909Z,20.4
2017-10-08T00:22:29.326Z,20.4
2017-10-08T00:23:30.745Z,20.4
2017-10-08T00:24:32.162Z,20.4
2017-10-08T00:25:33.580Z,20.4
2017-10-08T00:26:34.992Z,20.4
2017-10-08T00:27:36.408Z,20.3
2017-10-08T00:28:37.823Z,20.3
2017-10-08T00:29:39.238Z,20.4
2017-10-08T00:30:40.657Z,20.4
2017-10-08T00:31:42.068Z,20.4
2017-10-08T00:32:43.480Z,20.4
2017-10-08T00:33:44.898Z,20.4
2017-10-08T00:34:46.334Z,20.4
2017-10-08T00:35:47.750Z,20.4
2017-10-08T00:36:49.168Z,20.4
2017-10-08T00:37:50.585Z,20.4
2017-10-08T00:38:52.000Z,20.4
2017-10-08T00:39:53.412Z,20.4
2017-10-08T00:40:54.831Z,20.3
2017-10-08T00:41:56.243Z,20.3
2017-10-08T00:42:57.656Z,20.4
2017-10-08T00:43:59.071Z,20.3
2017-10-08T00:45:00.492Z,20.3
2017-10-08T00:46:01.908Z,20.3
2017-10-08T00:47:03.324Z,20.3
2017-10-08T00:48:04.798Z,20.3
2017-10-08T00:49:06.215Z,20.3
2017-10-08T00:50:07.631Z,20.3
2017-10-08T00:51:09.047Z,20.4
2017-10-08T00:52:10.465Z,20.4
2017-10-08T00:53:11.879Z,20.4
2017-10-08T00:54:13.291Z,20.4
2017-10-08T00:55:14.714Z,20.4
2017-10-08T00:56:16.131Z,20.3
2017-10-08T00:57:17.545Z,20.3
2017-10-08T00:58:18.960Z,20.4
2017-10-08T00:59:20.372Z,20.3
2017-10-08T01:00:21.789Z,20.4
2017-10-08T01:01:23.204Z,20.4
2017-10-08T01:02:24.622Z,20.4
2017-10-08T01:03:26.033Z,20.3
2017-10-08T01:04:27.448Z,20.4
2017-10-08T01:05:28.866Z,20.4
2017-10-08T01:06:30.270Z,20.4
2017-10-08T01:07:31.699Z,20.4
2017-10-08T01:08:33.114Z,20.4
2017-10-08T01:09:34.573Z,20.3
2017-10-08T01:10:35.989Z,20.3
2017-10-08T01:11:37.436Z,20.4
2017-10-08T01:12:38.852Z,20.4
2017-10-08T01:13:40.269Z,20.4
2017-10-08T01:14:41.684Z,20.3
2017-10-08T01:15:43.099Z,20.4
2017-10-08T01:16:44.533Z,20.4
2017-10-08T01:17:45.949Z,20.3
2017-10-08T01:18:47.371Z,20.4
2017-10-08T01:19:48.787Z,20.4
2017-10-08T01:20:50.206Z,20.3
2017-10-08T01:21:51.623Z,20.4
2017-10-08T01:22:53.040Z,20.4
2017-10-08T01:23:54.460Z,20.3
2017-10-08T01:24:55.872Z,20.4
2017-10-08T01:25:57.287Z,20.3
2017-10-08T01:26:58.704Z,20.3
2017-10-08T01:28:00.121Z,20.3
2017-10-08T01:29:01.537Z,20.3
2017-10-08T01:30:02.951Z,20.3
2017-10-08T01:31:04.366Z,20.3
2017-10-08T01:32:05.781Z,20.3
2017-10-08T01:33:07.193Z,20.4
2017-10-08T01:34:08.610Z,20.4
2017-10-08T01:35:10.027Z,20.3
2017-10-08T01:36:11.442Z,20.4
2017-10-08T01:37:12.858Z,20.3
2017-10-08T01:38:14.271Z,20.4
2017-10-08T01:39:15.689Z,20.4
2017-10-08T01:40:17.104Z,20.4
2017-10-08T01:41:18.522Z,20.4
2017-10-08T01:42:19.939Z,20.4
2017-10-08T01:43:21.355Z,20.4
2017-10-08T01:44:22.770Z,20.3
2017-10-08T01:45:24.186Z,20.4
2017-10-08T01:46:25.599Z,20.4
2017-10-08T01:47:27.016Z,20.4
2017-10-08T01:48:28.427Z,20.3
2017-10-08T01:49:29.842Z,20.3
2017-10-08T01:50:31.259Z,20.3
2017-10-08T01:51:32.676Z,20.3
2017-10-08T01:52:34.110Z,20.3
2017-10-08T01:53:35.527Z,20.3
2017-10-08T01:54:36.964Z,20.3
2017-10-08T01:55:38.379Z,20.3
2017-10-08T01:56:39.793Z,20.4
2017-10-08T01:57:41.208Z,20.3
2017-10-08T01:58:42.624Z,20.3
2017-10-08T01:59:44.038Z,20.4
2017-10-08T02:00:45.451Z,20.4
2017-10-08T02:01:46.866Z,20.3
2017-10-08T02:02:48.284Z,20.4
2017-10-08T02:03:49.694Z,20.3
2017-10-08T02:04:51.111Z,20.3
2017-10-08T02:05:52.528Z,20.3
2017-10-08T02:06:53.953Z,20.3
2017-10-08T02:07:55.370Z,20.3
2017-10-08T02:08:56.784Z,20.3
2017-10-08T02:09:58.198Z,20.3
2017-10-08T02:10:59.610Z,20.3
2017-10-08T02:12:01.027Z,20.3
2017-10-08T02:13:02.444Z,20.4
2017-10-08T02:14:03.860Z,20.3
2017-10-08T02:15:05.277Z,20.4
2017-10-08T02:16:06.692Z,20.3
2017-10-08T02:17:08.106Z,20.3
2017-10-08T02:18:09.523Z,20.4
2017-10-08T02:19:10.939Z,20.4
2017-10-08T02:20:12.353Z,20.3
2017-10-08T02:21:13.771Z,20.4
2017-10-08T02:22:15.182Z,20.3
2017-10-08T02:23:16.598Z,20.3
2017-10-08T02:24:18.012Z,20.3
2017-10-08T02:25:19.426Z,20.4
2017-10-08T02:26:20.842Z,20.4
2017-10-08T02:27:22.256Z,20.3
2017-10-08T02:28:23.677Z,20.3
2017-10-08T02:29:25.089Z,20.4
2017-10-08T02:30:26.510Z,20.4
2017-10-08T02:31:27.923Z,20.4
2017-10-08T02:32:29.339Z,20.4
2017-10-08T02:33:30.759Z,20.4
2017-10-08T02:34:32.169Z,20.4
2017-10-08T02:35:33.585Z,20.3
2017-10-08T02:36:35.001Z,20.4
2017-10-08T02:37:36.415Z,20.3
2017-10-08T02:38:37.830Z,20.3
2017-10-08T02:39:39.248Z,20.3
2017-10-08T02:40:40.662Z,20.3
2017-10-08T02:41:42.075Z,20.3
2017-10-08T02:42:43.491Z,20.4
2017-10-08T02:43:44.906Z,20.4
2017-10-08T02:44:46.321Z,20.4
2017-10-08T02:45:47.733Z,20.3
2017-10-08T02:46:49.147Z,20.3
2017-10-08T02:47:50.561Z,20.3
2017-10-08T02:48:51.979Z,20.4
2017-10-08T02:49:53.396Z,20.4
2017-10-08T02:50:54.809Z,20.3
2017-10-08T02:51:56.224Z,20.3
2017-10-08T02:52:57.641Z,20.3
2017-10-08T02:53:59.056Z,20.4
2017-10-08T02:55:00.477Z,20.4
2017-10-08T02:56:01.891Z,20.4
2017-10-08T02:57:03.310Z,20.4
2017-10-08T02:58:04.745Z,20.4
2017-10-08T02:59:06.160Z,20.4
2017-10-08T03:00:07.576Z,20.3
2017-10-08T03:01:08.990Z,20.3
2017-10-08T03:02:10.408Z,20.3
2017-10-08T03:03:11.823Z,20.4
2017-10-08T03:04:13.238Z,20.3
2017-10-08T03:05:14.657Z,20.3
2017-10-08T03:06:16.072Z,20.3
2017-10-08T03:07:17.489Z,20.4
2017-10-08T03:08:18.904Z,20.3
2017-10-08T03:09:20.319Z,20.3
2017-10-08T03:10:21.739Z,20.3
2017-10-08T03:11:23.152Z,20.4
2017-10-08T03:12:24.570Z,20.4
2017-10-08T03:13:25.981Z,20.3
2017-10-08T03:14:27.398Z,20.3
2017-10-08T03:15:28.813Z,20.3
2017-10-08T03:16:30.232Z,20.3
2017-10-08T03:17:31.642Z,20.3
2017-10-08T03:18:33.058Z,20.3
2017-10-08T03:19:34.474Z,20.3
2017-10-08T03:20:35.889Z,20.4
2017-10-08T03:21:37.328Z,20.3
2017-10-08T03:22:38.729Z,20.3
2017-10-08T03:23:40.146Z,20.4
2017-10-08T03:24:41.564Z,20.3
2017-10-08T03:25:42.981Z,20.3
2017-10-08T03:26:44.409Z,20.3
2017-10-08T03:27:45.825Z,20.3
2017-10-08T03:28:47.259Z,20.4
2017-10-08T03:29:48.675Z,20.4
2017-10-08T03:30:50.088Z,20.3
2017-10-08T03:31:51.503Z,20.3
2017-10-08T03:32:52.917Z,20.3
2017-10-08T03:33:54.336Z,20.4
2017-10-08T03:34:55.748Z,20.4
2017-10-08T03:35:57.167Z,20.3
2017-10-08T03:36:58.581Z,20.3
2017-10-08T03:37:59.998Z,20.3
2017-10-08T03:39:01.417Z,20.3
2017-10-08T03:40:02.832Z,20.3
2017-10-08T03:41:04.248Z,20.3
2017-10-08T03:42:05.663Z,20.3
2017-10-08T03:43:07.081Z,20.4
2017-10-08T03:44:08.497Z,20.4
2017-10-08T03:45:09.918Z,20.3
2017-10-08T03:46:11.328Z,20.3
2017-10-08T03:47:12.746Z,20.3
2017-10-08T03:48:14.159Z,20.3
2017-10-08T03:49:15.575Z,20.3
2017-10-08T03:50:16.989Z,20.3
2017-10-08T03:51:18.405Z,20.3
2017-10-08T03:52:19.821Z,20.3
2017-10-08T03:53:21.235Z,20.4
2017-10-08T03:54:22.653Z,20.3
2017-10-08T03:55:24.066Z,20.3
2017-10-08T03:56:25.481Z,20.3
2017-10-08T03:57:26.896Z,20.3
2017-10-08T03:58:28.310Z,20.2
2017-10-08T03:59:29.724Z,20.4
2017-10-08T04:00:31.141Z,20.3
2017-10-08T04:01:32.556Z,20.3
2017-10-08T04:02:33.971Z,20.4
2017-10-08T04:03:35.384Z,20.3
2017-10-08T04:04:36.798Z,20.2
2017-10-08T04:05:38.215Z,20.3
2017-10-08T04:06:39.627Z,20.3
2017-10-08T04:07:41.045Z,20.2
2017-10-08T04:08:42.464Z,20.4
2017-10-08T04:09:43.880Z,20.3
2017-10-08T04:10:45.295Z,20.3
2017-10-08T04:11:46.715Z,20.3
2017-10-08T04:12:48.131Z,20.3
2017-10-08T04:13:49.543Z,20.3
2017-10-08T04:14:50.963Z,20.3
2017-10-08T04:15:52.378Z,20.3
2017-10-08T04:16:53.793Z,20.3
2017-10-08T04:17:55.207Z,20.3
2017-10-08T04:18:56.621Z,20.3
2017-10-08T04:19:58.040Z,20.3
2017-10-08T04:20:59.451Z,20.3
2017-10-08T04:22:00.865Z,20.4
2017-10-08T04:23:02.284Z,20.3
2017-10-08T04:24:03.702Z,20.4
2017-10-08T04:25:05.113Z,20.3
2017-10-08T04:26:06.527Z,20.3
2017-10-08T04:27:07.943Z,20.4
2017-10-08T04:28:09.357Z,20.3
2017-10-08T04:29:10.773Z,20.3
2017-10-08T04:30:12.190Z,20.3
2017-10-08T04:31:13.607Z,20.3
2017-10-08T04:32:15.024Z,20.3
2017-10-08T04:33:16.442Z,20.4
2017-10-08T04:34:17.855Z,20.4
2017-10-08T04:35:19.273Z,20.3
2017-10-08T04:36:20.687Z,20.3
2017-10-08T04:37:22.103Z,20.3
2017-10-08T04:38:23.519Z,20.3
2017-10-08T04:39:24.933Z,20.3
2017-10-08T04:40:26.349Z,20.3
2017-10-08T04:41:27.765Z,20.4
2017-10-08T04:42:29.178Z,20.3
2017-10-08T04:43:30.595Z,20.2
2017-10-08T04:44:32.016Z,20.3
2017-10-08T04:45:33.425Z,20.3
2017-10-08T04:46:34.838Z,20.3
2017-10-08T04:47:36.253Z,20.4
2017-10-08T04:48:37.669Z,20.3
2017-10-08T04:49:39.081Z,20.4
2017-10-08T04:50:40.502Z,20.3
2017-10-08T04:51:41.921Z,20.3
2017-10-08T04:52:43.337Z,20.3
2017-10-08T04:53:44.750Z,20.3
2017-10-08T04:54:46.173Z,20.3
2017-10-08T04:55:47.590Z,20.3
2017-10-08T04:56:49.007Z,20.3
2017-10-08T04:57:50.422Z,20.3
2017-10-08T04:58:51.837Z,20.3
2017-10-08T04:59:53.254Z,20.3
2017-10-08T05:00:54.670Z,20.3
2017-10-08T05:01:56.088Z,20.3
2017-10-08T05:02:57.498Z,20.3
2017-10-08T05:03:58.912Z,20.3
2017-10-08T05:05:00.329Z,20.3
2017-10-08T05:06:01.747Z,20.4
2017-10-08T05:07:03.165Z,20.3
2017-10-08T05:08:04.645Z,20.3
2017-10-08T05:09:06.025Z,20.3
2017-10-08T05:10:07.450Z,20.3
2017-10-08T05:11:08.865Z,20.3
2017-10-08T05:12:10.283Z,20.3
2017-10-08T05:13:11.701Z,20.3
2017-10-08T05:14:13.115Z,20.3
2017-10-08T05:15:14.530Z,20.3
2017-10-08T05:16:15.947Z,20.3
2017-10-08T05:17:17.363Z,20.3
2017-10-08T05:18:18.782Z,20.3
2017-10-08T05:19:20.195Z,20.2
2017-10-08T05:20:21.610Z,20.3
2017-10-08T05:21:23.021Z,20.3
2017-10-08T05:22:24.437Z,20.3
2017-10-08T05:23:25.850Z,20.2
2017-10-08T05:24:27.264Z,20.3
2017-10-08T05:25:28.681Z,20.3
2017-10-08T05:26:30.099Z,20.3
2017-10-08T05:27:31.518Z,20.2
2017-10-08T05:28:32.935Z,20.3
2017-10-08T05:29:34.371Z,20.2
2017-10-08T05:30:35.785Z,20.3
2017-10-08T05:31:37.204Z,20.3
2017-10-08T05:32:38.618Z,20.2
2017-10-08T05:33:40.036Z,20.3
2017-10-08T05:34:41.452Z,20.3
2017-10-08T05:35:42.871Z,20.3
2017-10-08T05:36:44.290Z,20.3
2017-10-08T05:37:45.707Z,20.2
2017-10-08T05:38:47.124Z,20.2
2017-10-08T05:39:48.541Z,20.2
2017-10-08T05:40:49.959Z,20.3
2017-10-08T05:41:51.375Z,20.3
2017-10-08T05:42:52.797Z,20.3
2017-10-08T05:43:54.210Z,20.3
2017-10-08T05:44:55.630Z,20.3
2017-10-08T05:45:57.049Z,20.3
2017-10-08T05:46:58.466Z,20.2
2017-10-08T05:47:59.885Z,20.3
2017-10-08T05:49:01.306Z,20.2
2017-10-08T05:50:02.720Z,20.3
2017-10-08T05:51:04.131Z,20.3
2017-10-08T05:52:05.602Z,20.2
2017-10-08T05:53:07.015Z,20.3
2017-10-08T05:54:08.428Z,20.3
2017-10-08T05:55:09.845Z,20.2
2017-10-08T05:56:11.287Z,20.3
2017-10-08T05:57:12.675Z,20.3
2017-10-08T05:58:14.091Z,20.2
2017-10-08T05:59:15.508Z,20.3
2017-10-08T06:00:16.922Z,20.3
2017-10-08T06:01:18.340Z,20.3
2017-10-08T06:02:19.758Z,20.2
2017-10-08T06:03:21.264Z,20.3
2017-10-08T06:04:22.680Z,20.3
2017-10-08T06:05:24.092Z,20.2
2017-10-08T06:06:25.512Z,20.3
2017-10-08T06:07:26.928Z,20.3
2017-10-08T06:08:28.342Z,20.2
2017-10-08T06:09:29.758Z,20.3
2017-10-08T06:10:31.171Z,20.3
2017-10-08T06:11:32.588Z,20.3
2017-10-08T06:12:34.002Z,20.3
2017-10-08T06:13:35.417Z,20.3
2017-10-08T06:14:36.830Z,20.3
2017-10-08T06:15:38.248Z,20.2
2017-10-08T06:16:39.660Z,20.3
2017-10-08T06:17:41.077Z,20.3
2017-10-08T06:18:42.492Z,20.3
2017-10-08T06:19:43.913Z,20.3
2017-10-08T06:20:45.331Z,20.3
2017-10-08T06:21:46.749Z,20.3
2017-10-08T06:22:48.165Z,20.3
2017-10-08T06:23:49.580Z,20.3
2017-10-08T06:24:50.996Z,20.3
2017-10-08T06:25:52.423Z,20.4
2017-10-08T06:26:53.838Z,20.3
2017-10-08T06:27:55.254Z,20.3
2017-10-08T06:28:56.671Z,20.3
2017-10-08T06:29:58.160Z,20.3
2017-10-08T06:30:59.575Z,20.3
2017-10-08T06:32:00.992Z,20.3
2017-10-08T06:33:02.406Z,20.3
2017-10-08T06:34:03.824Z,20.3
2017-10-08T06:35:05.239Z,20.4
2017-10-08T06:36:06.657Z,20.4
2017-10-08T06:37:08.077Z,20.2
2017-10-08T06:38:09.498Z,20.3
2017-10-08T06:39:10.912Z,20.4
2017-10-08T06:40:12.328Z,20.3
2017-10-08T06:41:13.836Z,20.4
2017-10-08T06:42:15.253Z,20.3
2017-10-08T06:43:16.670Z,20.3
2017-10-08T06:44:18.087Z,20.4
2017-10-08T06:45:19.500Z,20.4
2017-10-08T06:46:20.921Z,20.4
2017-10-08T06:47:22.337Z,20.4
2017-10-08T06:48:23.756Z,20.4
2017-10-08T06:49:25.173Z,20.4
2017-10-08T06:50:26.589Z,20.4
2017-10-08T06:51:28.003Z,20.4
2017-10-08T06:52:29.422Z,20.5
2017-10-08T06:53:30.839Z,20.4
2017-10-08T06:54:32.256Z,20.4
2017-10-08T06:55:33.670Z,20.4
2017-10-08T06:56:35.086Z,20.4
2017-10-08T06:57:36.509Z,20.4
2017-10-08T06:58:37.930Z,20.4
2017-10-08T06:59:39.349Z,20.4
2017-10-08T07:00:40.765Z,20.5
2017-10-08T07:01:42.180Z,20.4
2017-10-08T07:02:43.595Z,20.4
2017-10-08T07:03:45.012Z,20.4
2017-10-08T07:04:46.429Z,20.4
2017-10-08T07:05:47.846Z,20.5
2017-10-08T07:06:49.261Z,20.4
2017-10-08T07:07:50.676Z,20.5
2017-10-08T07:08:52.093Z,20.5
2017-10-08T07:09:53.508Z,20.5
2017-10-08T07:10:54.922Z,20.5
2017-10-08T07:11:56.338Z,20.6
2017-10-08T07:12:57.756Z,20.5
2017-10-08T07:13:59.174Z,20.5
2017-10-08T07:15:00.596Z,20.6
2017-10-08T07:16:02.010Z,20.5
2017-10-08T07:17:03.427Z,20.5
2017-10-08T07:18:04.895Z,20.6
2017-10-08T07:19:06.311Z,20.5
2017-10-08T07:20:07.728Z,20.6
2017-10-08T07:21:09.145Z,20.6
2017-10-08T07:22:10.559Z,20.6
2017-10-08T07:23:11.970Z,20.5
2017-10-08T07:24:13.391Z,20.6
2017-10-08T07:25:14.809Z,20.6
2017-10-08T07:26:16.230Z,20.6
2017-10-08T07:27:17.643Z,20.6
2017-10-08T07:28:19.065Z,20.6
2017-10-08T07:29:20.483Z,20.6
2017-10-08T07:30:21.895Z,20.7
2017-10-08T07:31:23.359Z,20.6
2017-10-08T07:32:24.775Z,20.6
2017-10-08T07:33:26.201Z,20.6
2017-10-08T07:34:27.616Z,20.6
2017-10-08T07:35:29.029Z,20.6
2017-10-08T07:36:30.444Z,20.6
2017-10-08T07:37:31.863Z,20.6
2017-10-08T07:38:33.279Z,20.6
2017-10-08T07:39:34.718Z,20.7
2017-10-08T07:40:36.137Z,20.6
2017-10-08T07:41:37.557Z,20.7
2017-10-08T07:42:38.973Z,20.7
2017-10-08T07:43:40.389Z,20.7
2017-10-08T07:44:41.811Z,20.6
2017-10-08T07:45:43.231Z,20.7
2017-10-08T07:46:44.644Z,20.7
2017-10-08T07:47:46.061Z,20.7
2017-10-08T07:48:47.470Z,20.6
2017-10-08T07:49:48.900Z,20.7
2017-10-08T07:50:50.315Z,20.7
2017-10-08T07:51:51.730Z,20.6
2017-10-08T07:52:53.146Z,20.6
2017-10-08T07:53:54.563Z,20.6
2017-10-08T07:54:55.980Z,20.7
2017-10-08T07:55:57.393Z,20.6
2017-10-08T07:56:58.817Z,20.6
2017-10-08T07:58:00.235Z,20.7
2017-10-08T07:59:01.658Z,20.7
2017-10-08T08:00:03.073Z,20.7
2017-10-08T08:01:04.491Z,20.6
2017-10-08T08:02:05.936Z,20.7
2017-10-08T08:03:07.356Z,20.7
2017-10-08T08:04:08.768Z,20.6
2017-10-08T08:05:10.184Z,20.7
2017-10-08T08:06:11.603Z,20.7
2017-10-08T08:07:13.024Z,20.7
2017-10-08T08:08:14.440Z,20.7
2017-10-08T08:09:15.857Z,20.7
2017-10-08T08:10:17.271Z,20.6
2017-10-08T08:11:18.687Z,20.7
2017-10-08T08:12:20.108Z,20.7
2017-10-08T08:13:21.527Z,20.7
2017-10-08T08:14:22.944Z,20.7
2017-10-08T08:15:24.360Z,20.7
2017-10-08T08:16:25.775Z,20.7
2017-10-08T08:17:27.191Z,20.6
2017-10-08T08:18:28.612Z,20.7
2017-10-08T08:19:30.035Z,20.7
2017-10-08T08:20:31.444Z,20.8
2017-10-08T08:21:32.862Z,20.7
2017-10-08T08:22:34.280Z,20.8
2017-10-08T08:23:35.693Z,20.8
2017-10-08T08:24:37.110Z,20.8
2017-10-08T08:25:38.524Z,20.8
2017-10-08T08:26:39.941Z,20.8
2017-10-08T08:27:41.360Z,20.7
2017-10-08T08:28:42.778Z,20.8
2017-10-08T08:29:44.195Z,20.8
2017-10-08T08:30:45.613Z,20.7
2017-10-08T08:31:47.029Z,20.8
2017-10-08T08:32:48.444Z,20.8
2017-10-08T08:33:49.863Z,20.8
2017-10-08T08:34:51.280Z,20.8
2017-10-08T08:35:52.707Z,20.8
2017-10-08T08:36:54.122Z,20.8
2017-10-08T08:37:55.560Z,20.8
2017-10-08T08:38:56.974Z,20.8
2017-10-08T08:39:58.395Z,20.8
2017-10-08T08:40:59.809Z,20.8
2017-10-08T08:42:01.227Z,20.8
2017-10-08T08:43:02.644Z,20.8
2017-10-08T08:44:04.060Z,20.8
2017-10-08T08:45:05.475Z,20.8
2017-10-08T08:46:06.891Z,20.8
2017-10-08T08:47:08.314Z,20.8
2017-10-08T08:48:09.731Z,20.8
2017-10-08T08:49:11.149Z,20.8
2017-10-08T08:50:12.566Z,20.8
2017-10-08T08:51:13.983Z,20.8
2017-10-08T08:52:15.403Z,20.8
2017-10-08T08:53:16.819Z,20.8
2017-10-08T08:54:18.237Z,20.8
2017-10-08T08:55:19.654Z,20.8
2017-10-08T08:56:21.071Z,20.7
2017-10-08T08:57:22.487Z,20.7
2017-10-08T08:58:23.903Z,20.8
2017-10-08T08:59:25.329Z,20.8
2017-10-08T09:00:26.746Z,20.9
2017-10-08T09:01:28.165Z,20.9
2017-10-08T09:02:29.579Z,20.9
2017-10-08T09:03:30.998Z,20.9
2017-10-08T09:04:32.428Z,20.9
2017-10-08T09:05:33.841Z,20.9
2017-10-08T09:06:35.257Z,20.9
2017-10-08T09:07:36.678Z,20.9
2017-10-08T09:08:38.099Z,20.9
2017-10-08T09:09:39.517Z,20.8
2017-10-08T09:10:40.932Z,20.8
2017-10-08T09:11:42.351Z,20.9
2017-10-08T09:12:43.767Z,20.9
2017-10-08T09:13:45.181Z,20.8
2017-10-08T09:14:46.600Z,20.9
2017-10-08T09:15:48.016Z,20.8
2017-10-08T09:16:49.435Z,20.8
2017-10-08T09:17:50.851Z,20.8
2017-10-08T09:18:52.272Z,20.9
2017-10-08T09:19:53.692Z,20.9
2017-10-08T09:20:55.146Z,20.9
2017-10-08T09:21:56.525Z,21.0
2017-10-08T09:22:57.942Z,20.9
2017-10-08T09:23:59.360Z,20.9
2017-10-08T09:25:00.776Z,21.0
2017-10-08T09:26:02.191Z,20.9
2017-10-08T09:27:03.610Z,21.0
2017-10-08T09:28:05.074Z,21.0
2017-10-08T09:29:06.497Z,21.0
2017-10-08T09:30:07.909Z,21.0
2017-10-08T09:31:09.328Z,21.0
2017-10-08T09:32:10.746Z,21.0
2017-10-08T09:33:12.164Z,20.9
2017-10-08T09:34:13.582Z,21.0
2017-10-08T09:35:15.001Z,21.0
2017-10-08T09:36:16.424Z,21.0
2017-10-08T09:37:17.834Z,21.0
2017-10-08T09:38:19.254Z,21.0
2017-10-08T09:39:20.669Z,21.1
2017-10-08T09:40:22.089Z,21.0
2017-10-08T09:41:23.503Z,21.0
2017-10-08T09:42:24.922Z,21.1
2017-10-08T09:43:26.392Z,21.0
2017-10-08T09:44:27.818Z,21.1
2017-10-08T09:45:29.238Z,21.0
2017-10-08T09:46:30.652Z,21.1
2017-10-08T09:47:32.071Z,21.0
2017-10-08T09:48:33.486Z,21.0
2017-10-08T09:49:34.902Z,21.1
2017-10-08T09:50:36.317Z,21.0
2017-10-08T09:51:37.743Z,21.0
2017-10-08T09:52:39.162Z,21.0
2017-10-08T09:53:40.581Z,21.0
2017-10-08T09:54:42.002Z,21.0
2017-10-08T09:55:43.417Z,21.0
2017-10-08T09:56:44.833Z,21.0
2017-10-08T09:57:46.252Z,21.0
2017-10-08T09:58:47.666Z,21.0
2017-10-08T09:59:49.085Z,21.0
2017-10-08T10:00:50.503Z,21.0
2017-10-08T10:01:51.920Z,21.0
2017-10-08T10:02:53.335Z,21.0
2017-10-08T10:03:54.754Z,21.0
2017-10-08T10:04:56.175Z,21.0
2017-10-08T10:05:57.581Z,21.0
2017-10-08T10:06:59.028Z,21.1
2017-10-08T10:08:00.446Z,21.1
2017-10-08T10:09:01.863Z,21.0
2017-10-08T10:10:03.291Z,21.0
2017-10-08T10:11:04.710Z,21.1
2017-10-08T10:12:06.126Z,21.0
2017-10-08T10:13:07.555Z,21.1
2017-10-08T10:14:08.970Z,21.0
2017-10-08T10:15:10.405Z,21.1
2017-10-08T10:16:11.824Z,21.0
2017-10-08T10:17:13.242Z,21.0
2017-10-08T10:18:14.655Z,21.1
2017-10-08T10:19:16.080Z,21.1
2017-10-08T10:20:17.501Z,21.1
2017-10-08T10:21:18.915Z,21.1
2017-10-08T10:22:20.331Z,21.1
2017-10-08T10:23:21.749Z,21.1
2017-10-08T10:24:23.169Z,21.1
2017-10-08T10:25:24.586Z,21.1
2017-10-08T10:26:26.005Z,21.1
2017-10-08T10:27:27.456Z,21.1
2017-10-08T10:28:28.874Z,21.1
2017-10-08T10:29:30.295Z,21.1
2017-10-08T10:30:31.711Z,21.1
2017-10-08T10:31:33.129Z,21.2
2017-10-08T10:32:34.546Z,21.2
2017-10-08T10:33:35.967Z,21.1
2017-10-08T10:34:37.400Z,21.1
2017-10-08T10:35:38.819Z,21.1
2017-10-08T10:36:40.241Z,21.1
2017-10-08T10:37:41.650Z,21.1
2017-10-08T10:38:43.068Z,21.1
2017-10-08T10:39:44.491Z,21.1
2017-10-08T10:40:45.900Z,21.1
2017-10-08T10:41:47.323Z,21.1
2017-10-08T10:42:48.741Z,21.0
2017-10-08T10:43:50.157Z,21.1
2017-10-08T10:44:51.573Z,21.1
2017-10-08T10:45:52.988Z,21.1
2017-10-08T10:46:54.414Z,21.1
2017-10-08T10:47:55.833Z,21.1
2017-10-08T10:48:57.270Z,21.1
2017-10-08T10:49:58.688Z,21.1
2017-10-08T10:51:00.105Z,21.0
2017-10-08T10:52:01.524Z,21.1
2017-10-08T10:53:02.941Z,21.1
2017-10-08T10:54:04.364Z,21.1
2017-10-08T10:55:05.781Z,21.1
2017-10-08T10:56:07.198Z,21.1
2017-10-08T10:57:08.615Z,21.1
2017-10-08T10:58:10.031Z,21.0
2017-10-08T10:59:11.453Z,21.1
2017-10-08T11:00:12.866Z,21.1
2017-10-08T11:01:14.284Z,21.1
2017-10-08T11:02:15.698Z,21.1
2017-10-08T11:03:17.116Z,21.0
2017-10-08T11:04:18.533Z,21.1
2017-10-08T11:05:19.949Z,21.2
2017-10-08T11:06:21.370Z,21.0
2017-10-08T11:07:22.788Z,21.1
2017-10-08T11:08:24.203Z,21.1
2017-10-08T11:09:25.616Z,21.0
2017-10-08T11:10:27.037Z,21.1
2017-10-08T11:11:28.453Z,21.1
2017-10-08T11:12:29.908Z,21.0
2017-10-08T11:13:31.324Z,21.0
2017-10-08T11:14:32.740Z,21.0
2017-10-08T11:15:34.155Z,21.1
2017-10-08T11:16:35.573Z,21.0
2017-10-08T11:17:36.991Z,21.0
2017-10-08T11:18:38.407Z,21.0
2017-10-08T11:19:39.824Z,21.1
2017-10-08T11:20:41.241Z,21.1
2017-10-08T11:21:42.660Z,21.1
2017-10-08T11:22:44.077Z,21.1
2017-10-08T11:23:45.497Z,21.1
2017-10-08T11:24:46.914Z,21.0
2017-10-08T11:25:48.340Z,21.1
2017-10-08T11:26:49.755Z,21.0
2017-10-08T11:27:51.172Z,21.0
2017-10-08T11:28:52.588Z,21.1
2017-10-08T11:29:54.003Z,21.0
2017-10-08T11:30:55.420Z,21.0
2017-10-08T11:31:56.835Z,21.0
2017-10-08T11:32:58.252Z,21.0
2017-10-08T11:33:59.670Z,21.0
2017-10-08T11:35:01.084Z,21.1
2017-10-08T11:36:02.501Z,21.1
2017-10-08T11:37:03.921Z,21.0
2017-10-08T11:38:05.340Z,21.1
2017-10-08T11:39:06.757Z,21.0
2017-10-08T11:40:08.175Z,21.0
2017-10-08T11:41:09.591Z,21.1
2017-10-08T11:42:11.010Z,21.1
2017-10-08T11:43:12.425Z,21.1
2017-10-08T11:44:13.846Z,21.1
2017-10-08T11:45:15.263Z,21.1
2017-10-08T11:46:16.679Z,21.1
2017-10-08T11:47:18.095Z,21.0
2017-10-08T11:48:19.509Z,21.1
2017-10-08T11:49:20.928Z,21.1
2017-10-08T11:50:22.348Z,21.0
2017-10-08T11:51:23.767Z,21.1
2017-10-08T11:52:25.183Z,21.1
2017-10-08T11:53:26.601Z,21.1
2017-10-08T11:54:28.024Z,21.1
2017-10-08T11:55:29.441Z,21.1
2017-10-08T11:56:30.855Z,21.1
2017-10-08T11:57:32.272Z,21.1
2017-10-08T11:58:33.690Z,21.1
2017-10-08T11:59:35.107Z,21.1
2017-10-08T12:00:36.526Z,21.1
2017-10-08T12:01:37.942Z,21.1
2017-10-08T12:02:39.363Z,21.1
2017-10-08T12:03:40.780Z,21.1
2017-10-08T12:04:42.196Z,21.2
2017-10-08T12:05:43.613Z,21.1
2017-10-08T12:06:45.029Z,21.2
2017-10-08T12:07:46.444Z,21.1
2017-10-08T12:08:47.859Z,21.1
2017-10-08T12:09:49.296Z,21.2
2017-10-08T12:10:50.726Z,21.1
2017-10-08T12:11:52.143Z,21.2
2017-10-08T12:12:53.560Z,21.2
2017-10-08T12:13:54.979Z,21.1
2017-10-08T12:14:56.393Z,21.2
2017-10-08T12:15:57.810Z,21.2
2017-10-08T12:16:59.226Z,21.1
2017-10-08T12:18:00.642Z,21.2
2017-10-08T12:19:02.059Z,21.1
2017-10-08T12:20:03.481Z,21.2
2017-10-08T12:21:04.896Z,21.1
2017-10-08T12:22:06.313Z,21.1
2017-10-08T12:23:07.730Z,21.1
2017-10-08T12:24:09.154Z,21.1
2017-10-08T12:25:10.566Z,21.2
2017-10-08T12:26:11.984Z,21.2
2017-10-08T12:27:13.403Z,21.1
2017-10-08T12:28:14.818Z,21.1
2017-10-08T12:29:16.239Z,21.1
2017-10-08T12:30:17.654Z,21.1
2017-10-08T12:31:19.071Z,21.1
2017-10-08T12:32:20.490Z,21.1
2017-10-08T12:33:21.909Z,21.1
2017-10-08T12:34:23.325Z,21.1
2017-10-08T12:35:24.745Z,21.2
2017-10-08T12:36:26.164Z,21.2
2017-10-08T12:37:27.582Z,21.1
2017-10-08T12:38:29.000Z,21.1
2017-10-08T12:39:30.414Z,21.2
2017-10-08T12:40:31.834Z,21.2
2017-10-08T12:41:33.254Z,21.2
2017-10-08T12:42:34.666Z,21.2
2017-10-08T12:43:36.088Z,21.1
2017-10-08T12:44:37.501Z,21.2
2017-10-08T12:45:38.916Z,21.1
2017-10-08T12:46:40.336Z,21.2
2017-10-08T12:47:41.757Z,21.2
2017-10-08T12:48:43.175Z,21.1
2017-10-08T12:49:44.593Z,21.2
2017-10-08T12:50:46.010Z,21.2
2017-10-08T12:51:47.430Z,21.1
2017-10-08T12:52:48.844Z,21.2
2017-10-08T12:53:50.263Z,21.2
2017-10-08T12:54:51.679Z,21.2
2017-10-08T12:55:53.094Z,21.2
2017-10-08T12:56:54.508Z,21.1
2017-10-08T12:57:55.928Z,21.1
2017-10-08T12:58:57.341Z,21.1
2017-10-08T12:59:58.760Z,21.1
2017-10-08T13:01:00.177Z,21.1
2017-10-08T13:02:01.597Z,21.1
2017-10-08T13:03:03.016Z,21.1
2017-10-08T13:04:04.433Z,21.1
2017-10-08T13:05:05.850Z,21.1
2017-10-08T13:06:07.266Z,21.1
2017-10-08T13:07:08.685Z,21.1
2017-10-08T13:08:10.101Z,21.1
2017-10-08T13:09:11.519Z,21.2
2017-10-08T13:10:12.936Z,21.1
2017-10-08T13:11:14.353Z,21.1
2017-10-08T13:12:15.772Z,21.1
2017-10-08T13:13:17.186Z,21.1
2017-10-08T13:14:18.606Z,21.2
2017-10-08T13:15:20.022Z,21.2
2017-10-08T13:16:21.443Z,21.2
2017-10-08T13:17:22.860Z,21.2
2017-10-08T13:18:24.276Z,21.2
2017-10-08T13:19:25.691Z,21.3
2017-10-08T13:20:27.112Z,21.3
2017-10-08T13:21:28.526Z,21.3
2017-10-08T13:22:29.947Z,21.3
2017-10-08T13:23:31.361Z,21.3
2017-10-08T13:24:32.774Z,21.3
2017-10-08T13:25:34.194Z,21.2
2017-10-08T13:26:35.611Z,21.3
2017-10-08T13:27:37.044Z,21.2
2017-10-08T13:28:38.460Z,21.2
2017-10-08T13:29:39.876Z,21.2
2017-10-08T13:30:41.294Z,21.1
2017-10-08T13:31:42.717Z,21.2
2017-10-08T13:32:44.131Z,21.1
2017-10-08T13:33:45.549Z,21.2
2017-10-08T13:34:46.967Z,21.2
2017-10-08T13:35:48.384Z,21.2
2017-10-08T13:36:49.803Z,21.1
2017-10-08T13:37:51.220Z,21.1